Time;durP1;ratioP1;P1;durP2;ratioP2;P2;SDS_P1;SDS_P2;PMS_P1;PMS_P2;Temp;Humidity;BMP_temperature;BMP_pressure;BME280_temperature;BME280_humidity;BME280_pressure;Samples;Min_cycle;Max_cycle;Signal;HPM_P1;HPM_P2
2021/07/16 00:01:04;;;;;;;0.40;0.00;;;;;;;26.12;62.09;100071.86;126569;1092;101722;-88
2021/07/16 00:03:31;;;;;;;0.40;0.00;;;;;;;26.07;62.37;100070.59;126559;1093;102840;-86
2021/07/16 00:05:58;;;;;;;0.40;0.00;;;;;;;26.02;62.97;100071.88;126579;1093;102943;-87
2021/07/16 00:08:26;;;;;;;0.40;0.00;;;;;;;25.86;63.21;100079.83;126567;1093;101819;-87
2021/07/16 00:10:59;;;;;;;0.40;0.00;;;;;;;25.75;63.40;100089.05;126606;1093;103173;-87
2021/07/16 00:13:27;;;;;;;0.40;0.00;;;;;;;25.77;63.39;100089.74;126535;1093;103050;-85
2021/07/16 00:15:54;;;;;;;0.40;0.00;;;;;;;25.83;63.10;100091.89;126569;1093;102871;-87
2021/07/16 00:18:26;;;;;;;0.40;0.00;;;;;;;25.85;63.30;100099.92;126656;1092;102984;-85
2021/07/16 00:20:54;;;;;;;0.40;0.00;;;;;;;25.85;63.58;100102.66;126558;1093;103577;-87
2021/07/16 00:23:21;;;;;;;0.40;0.00;;;;;;;25.82;63.46;100113.88;126574;1092;103000;-85
2021/07/16 00:25:49;;;;;;;0.40;0.00;;;;;;;25.85;62.98;100121.75;126573;1092;102862;-87
2021/07/16 00:28:22;;;;;;;0.40;0.00;;;;;;;25.84;63.62;100133.66;126585;1096;102969;-87
2021/07/16 00:30:53;;;;;;;0.40;0.00;;;;;;;25.69;63.65;100158.66;126726;1093;102912;-87
2021/07/16 00:33:21;;;;;;;0.40;0.00;;;;;;;25.62;63.80;100182.07;126607;1093;102863;-86
2021/07/16 00:35:48;;;;;;;0.40;0.00;;;;;;;25.56;64.13;100187.23;127105;1091;103003;-88
2021/07/16 00:38:15;;;;;;;0.40;0.00;;;;;;;25.51;64.13;100185.80;126972;1093;102971;-87
2021/07/16 00:40:46;;;;;;;0.40;0.00;;;;;;;25.66;64.09;100183.50;126422;1093;102983;-87
2021/07/16 00:43:14;;;;;;;0.40;0.00;;;;;;;25.76;64.15;100180.77;126408;1095;102856;-87
2021/07/16 00:45:44;;;;;;;0.40;0.00;;;;;;;25.77;64.23;100184.38;126423;1092;103004;-88
2021/07/16 00:48:11;;;;;;;0.40;0.00;;;;;;;25.81;63.82;100188.53;126460;1092;102943;-87
2021/07/16 00:50:41;;;;;;;0.40;0.00;;;;;;;25.81;64.24;100181.19;126533;1095;102893;-86
2021/07/16 00:53:09;;;;;;;0.40;0.00;;;;;;;25.90;63.81;100175.86;126422;1093;103029;-88
2021/07/16 00:55:37;;;;;;;0.40;0.00;;;;;;;25.93;63.60;100170.14;126478;1093;102879;-87
2021/07/16 00:58:04;;;;;;;0.40;0.00;;;;;;;26.01;63.90;100173.84;126459;1091;103012;-88
2021/07/16 01:00:32;;;;;;;0.40;0.00;;;;;;;25.95;63.93;100174.45;126521;1095;102863;-86
2021/07/16 01:02:59;;;;;;;0.40;0.00;;;;;;;25.97;64.02;100171.56;126486;1093;103572;-87
2021/07/16 01:05:31;;;;;;;0.40;0.00;;;;;;;25.91;64.07;100180.33;126489;1092;101911;-86
2021/07/16 01:07:58;;;;;;;0.40;0.00;;;;;;;25.79;64.17;100177.77;126515;1093;103161;-84
2021/07/16 01:10:25;;;;;;;0.40;0.00;;;;;;;25.76;64.32;100185.37;126582;1094;102913;-87
2021/07/16 01:12:54;;;;;;;0.40;0.00;;;;;;;25.80;64.32;100179.47;126523;1093;102986;-86
2021/07/16 01:15:24;;;;;;;0.40;0.00;;;;;;;25.77;64.33;100192.55;126507;1092;102892;-87
2021/07/16 01:17:53;;;;;;;0.40;0.00;;;;;;;25.63;64.60;100191.98;126634;1091;102994;-87
2021/07/16 01:20:32;;;;;;;0.40;0.00;;;;;;;25.50;64.92;100211.34;126708;1093;102455;-87
2021/07/16 01:23:04;;;;;;;0.40;0.00;;;;;;;25.43;65.28;100222.95;126510;1092;102888;-86
2021/07/16 01:25:33;;;;;;;0.40;0.00;;;;;;;25.39;65.48;100225.09;126592;1093;102873;-86
2021/07/16 01:28:03;;;;;;;0.40;0.00;;;;;;;25.34;65.36;100206.44;126448;1093;103010;-88
2021/07/16 01:30:33;;;;;;;0.40;0.00;;;;;;;25.21;65.61;100176.68;126468;1092;103151;-88
2021/07/16 01:33:04;;;;;;;0.40;0.00;;;;;;;25.26;65.84;100181.72;126529;1093;102884;-87
2021/07/16 01:35:31;;;;;;;0.40;0.00;;;;;;;25.23;65.96;100184.70;126455;1093;102997;-85
2021/07/16 01:37:59;;;;;;;0.40;0.00;;;;;;;25.32;65.76;100183.86;126519;1093;103004;-87
2021/07/16 01:40:26;;;;;;;0.40;0.00;;;;;;;25.36;65.55;100181.76;126528;1093;103042;-87
2021/07/16 01:42:56;;;;;;;0.40;0.00;;;;;;;25.34;65.73;100168.27;126517;1093;103054;-87
2021/07/16 01:45:28;;;;;;;0.40;0.00;;;;;;;25.40;65.76;100187.80;126487;1093;102884;-88
2021/07/16 01:48:04;;;;;;;0.40;0.00;;;;;;;25.37;65.81;100197.97;126467;1093;102926;-87
2021/07/16 01:50:32;;;;;;;0.40;0.00;;;;;;;25.37;65.97;100200.70;126525;1093;102882;-86
2021/07/16 01:53:00;;;;;;;0.40;0.00;;;;;;;25.37;66.38;100199.84;126513;1093;102754;-87
2021/07/16 01:55:33;;;;;;;0.40;0.00;;;;;;;25.24;66.49;100197.34;126547;1092;102943;-86
2021/07/16 01:58:06;;;;;;;0.40;0.00;;;;;;;25.25;66.46;100212.70;126443;1096;103312;-87
2021/07/16 02:00:38;;;;;;;0.40;0.00;;;;;;;25.20;66.54;100217.70;126491;1093;102921;-87
2021/07/16 02:03:10;;;;;;;0.40;0.00;;;;;;;25.14;66.95;100223.73;126529;1092;103014;-87
2021/07/16 02:05:42;;;;;;;0.40;0.00;;;;;;;25.12;67.17;100229.30;126448;1096;102871;-86
2021/07/16 02:08:13;;;;;;;0.40;0.00;;;;;;;25.03;67.66;100238.30;126490;1093;103020;-86
2021/07/16 02:10:43;;;;;;;0.40;0.00;;;;;;;24.98;67.91;100237.88;126594;1093;102862;-87
2021/07/16 02:13:11;;;;;;;0.40;0.00;;;;;;;24.95;67.59;100228.13;126466;1093;102843;-87
2021/07/16 02:15:40;;;;;;;0.40;0.00;;;;;;;25.00;67.76;100211.34;126474;1093;102868;-87
2021/07/16 02:18:08;;;;;;;0.40;0.00;;;;;;;24.97;67.63;100174.34;126409;1093;103060;-88
2021/07/16 02:20:38;;;;;;;0.40;0.00;;;;;;;24.98;67.49;100146.09;126520;1092;102863;-88
2021/07/16 02:23:08;;;;;;;0.40;0.00;;;;;;;25.00;67.29;100135.05;126436;1093;102943;-88
2021/07/16 02:25:36;;;;;;;0.40;0.00;;;;;;;25.02;67.10;100144.81;126438;1093;103023;-89
2021/07/16 02:28:18;;;;;;;0.40;0.00;;;;;;;24.98;66.70;100137.08;126481;1096;103035;-87
2021/07/16 02:30:48;;;;;;;0.40;0.00;;;;;;;24.91;66.51;100158.56;126455;1093;103496;-87
2021/07/16 02:33:16;;;;;;;0.40;0.00;;;;;;;24.91;66.63;100180.36;126447;1093;102987;-88
2021/07/16 02:35:45;;;;;;;0.40;0.00;;;;;;;24.97;65.85;100192.56;126462;1093;103001;-88
2021/07/16 02:38:13;;;;;;;0.40;0.00;;;;;;;25.02;65.22;100198.45;126491;1093;103017;-87
2021/07/16 02:40:41;;;;;;;0.40;0.00;;;;;;;25.06;64.47;100199.90;126666;1096;102963;-88
2021/07/16 02:43:09;;;;;;;0.40;0.00;;;;;;;25.04;63.07;100185.54;126485;1093;102889;-88
2021/07/16 02:45:37;;;;;;;0.40;0.00;;;;;;;25.01;62.96;100191.28;126461;1093;103462;-88
2021/07/16 02:48:04;;;;;;;0.40;0.00;;;;;;;24.94;63.02;100184.64;126508;1092;102902;-88
2021/07/16 02:50:35;;;;;;;0.40;0.00;;;;;;;24.90;62.96;100177.75;126490;1092;102863;-88
2021/07/16 02:53:09;;;;;;;0.40;0.00;;;;;;;24.82;62.77;100165.70;126689;1093;102862;-88
2021/07/16 02:55:37;;;;;;;0.40;0.00;;;;;;;24.80;62.59;100151.34;126651;1092;102882;-86
2021/07/16 02:58:06;;;;;;;0.40;0.00;;;;;;;24.79;61.91;100151.48;126525;1093;103013;-85
2021/07/16 03:00:37;;;;;;;0.40;0.00;;;;;;;24.70;60.92;100145.03;126623;1093;102912;-87
2021/07/16 03:03:10;;;;;;;0.40;0.00;;;;;;;24.64;61.54;100148.29;126470;1093;103008;-88
2021/07/16 03:05:38;;;;;;;0.40;0.00;;;;;;;24.67;61.55;100150.73;126415;1092;102959;-87
2021/07/16 03:08:12;;;;;;;0.40;0.00;;;;;;;24.71;61.43;100149.45;126465;1093;102871;-86
2021/07/16 03:10:46;;;;;;;0.40;0.00;;;;;;;24.68;61.57;100152.45;126568;1096;102789;-87
2021/07/16 03:13:16;;;;;;;0.40;0.00;;;;;;;24.68;61.94;100141.56;126510;1095;102961;-89
2021/07/16 03:15:44;;;;;;;0.40;0.00;;;;;;;24.57;61.97;100141.65;126499;1093;103006;-88
2021/07/16 03:18:11;;;;;;;0.40;0.00;;;;;;;24.52;61.66;100132.03;126445;1092;103303;-88
2021/07/16 03:20:41;;;;;;;0.40;0.00;;;;;;;24.44;62.20;100129.11;126583;1093;102984;-87
2021/07/16 03:23:10;;;;;;;0.40;0.00;;;;;;;24.34;62.37;100137.25;126612;1093;102901;-88
2021/07/16 03:25:38;;;;;;;0.40;0.00;;;;;;;24.30;62.46;100130.35;126585;1093;102986;-86
2021/07/16 03:28:06;;;;;;;0.40;0.00;;;;;;;24.26;62.89;100138.91;126485;1093;102860;-86
2021/07/16 03:30:33;;;;;;;0.40;0.00;;;;;;;24.22;63.53;100135.62;126595;1093;102871;-87
2021/07/16 03:33:01;;;;;;;0.40;0.00;;;;;;;24.20;64.19;100146.64;126952;1093;102863;-87
2021/07/16 03:35:29;;;;;;;0.40;0.00;;;;;;;24.22;64.47;100146.50;127195;1093;102077;-88
2021/07/16 03:37:57;;;;;;;0.40;0.00;;;;;;;24.28;64.89;100154.11;126469;1092;102862;-89
2021/07/16 03:40:28;;;;;;;0.40;0.00;;;;;;;24.36;65.36;100146.16;126400;1093;103016;-87
2021/07/16 03:42:58;;;;;;;0.40;0.00;;;;;;;24.40;65.38;100141.27;126541;1092;102868;-86
2021/07/16 03:45:25;;;;;;;0.40;0.00;;;;;;;24.39;65.88;100136.82;126391;1092;103332;-86
2021/07/16 03:47:52;;;;;;;0.40;0.00;;;;;;;24.36;66.22;100137.98;126398;1092;103036;-87
2021/07/16 03:50:22;;;;;;;0.40;0.00;;;;;;;24.31;66.27;100123.92;126471;1093;102878;-87
2021/07/16 03:52:50;;;;;;;0.40;0.00;;;;;;;24.29;66.67;100119.61;126420;1093;103006;-90
2021/07/16 03:55:18;;;;;;;0.40;0.00;;;;;;;24.20;66.88;100122.16;126534;1092;103460;-88
2021/07/16 03:57:48;;;;;;;0.40;0.00;;;;;;;24.11;67.06;100120.23;126528;1093;102868;-88
2021/07/16 04:00:25;;;;;;;0.40;0.00;;;;;;;24.11;66.92;100122.08;126761;1091;102925;-88
2021/07/16 04:02:54;;;;;;;0.40;0.00;;;;;;;24.06;66.56;100111.62;126463;1093;102868;-87
2021/07/16 04:05:22;;;;;;;0.40;0.00;;;;;;;23.97;66.51;100105.11;126508;1093;102988;-89
2021/07/16 04:08:00;;;;;;;0.40;0.00;;;;;;;23.99;66.35;100113.13;126506;1093;103020;-86
2021/07/16 04:10:29;;;;;;;0.40;0.00;;;;;;;23.98;66.25;100103.27;126505;1093;102927;-87
2021/07/16 04:13:06;;;;;;;0.40;0.00;;;;;;;24.00;66.32;100093.95;126542;1092;103007;-86
2021/07/16 04:15:42;;;;;;;0.40;0.00;;;;;;;24.01;66.43;100098.41;126585;1093;102898;-86
2021/07/16 04:18:10;;;;;;;0.40;0.00;;;;;;;24.01;66.94;100081.23;126610;1093;102746;-86
2021/07/16 04:20:39;;;;;;;0.40;0.00;;;;;;;24.00;67.11;100082.22;126522;1093;101775;-88
2021/07/16 04:23:07;;;;;;;0.40;0.00;;;;;;;24.03;67.30;100082.83;126885;1092;102854;-87
2021/07/16 04:25:37;;;;;;;0.40;0.00;;;;;;;24.02;67.56;100075.66;126479;1092;102866;-88
2021/07/16 04:28:06;;;;;;;0.40;0.00;;;;;;;24.07;67.46;100077.09;126500;1095;102935;-90
2021/07/16 04:30:33;;;;;;;0.40;0.00;;;;;;;24.11;67.30;100071.27;126478;1093;101575;-87
2021/07/16 04:33:03;;;;;;;0.40;0.00;;;;;;;24.08;68.13;100071.52;126524;1093;102891;-87
2021/07/16 04:35:33;;;;;;;0.40;0.00;;;;;;;24.07;68.38;100071.66;126499;1092;102871;-87
2021/07/16 04:38:00;;;;;;;0.40;0.00;;;;;;;24.08;68.50;100059.78;126539;1093;103105;-87
2021/07/16 04:40:27;;;;;;;0.40;0.00;;;;;;;24.07;68.56;100067.06;126530;1093;103446;-87
2021/07/16 04:42:56;;;;;;;0.40;0.00;;;;;;;24.08;68.68;100060.63;126408;1093;101684;-88
2021/07/16 04:45:24;;;;;;;0.40;0.00;;;;;;;24.07;68.75;100068.94;126514;1092;101730;-88
2021/07/16 04:47:51;;;;;;;0.40;0.00;;;;;;;24.05;69.37;100055.48;126526;1093;103370;-86
2021/07/16 04:50:19;;;;;;;0.40;0.00;;;;;;;24.08;69.13;100059.78;126522;1093;102862;-88
2021/07/16 04:52:49;;;;;;;0.40;0.00;;;;;;;24.11;69.26;100051.34;126486;1092;102786;-90
2021/07/16 04:55:18;;;;;;;0.40;0.00;;;;;;;24.16;69.15;100054.52;126501;1091;102968;-86
2021/07/16 04:57:45;;;;;;;0.40;0.00;;;;;;;24.26;68.87;100059.98;126535;1093;102923;-88
2021/07/16 05:00:13;;;;;;;0.40;0.00;;;;;;;24.30;68.49;100064.16;126493;1092;102945;-87
2021/07/16 05:02:40;;;;;;;0.40;0.00;;;;;;;24.41;68.51;100068.66;126540;1093;102859;-88
2021/07/16 05:05:08;;;;;;;0.40;0.00;;;;;;;24.50;68.07;100060.52;126441;1090;101713;-88
2021/07/16 05:07:36;;;;;;;0.40;0.00;;;;;;;24.60;67.58;100062.41;126504;1092;103013;-87
2021/07/16 05:10:05;;;;;;;0.40;0.00;;;;;;;24.66;67.15;100067.34;126563;1093;102663;-88
2021/07/16 05:12:32;;;;;;;0.40;0.00;;;;;;;24.68;66.70;100066.16;126463;1092;102932;-87
2021/07/16 05:15:00;;;;;;;0.40;0.00;;;;;;;24.74;66.76;100064.77;126474;1093;102863;-87
2021/07/16 05:17:27;;;;;;;0.40;0.00;;;;;;;24.81;66.47;100076.80;126410;1093;101692;-88
2021/07/16 05:19:54;;;;;;;0.40;0.00;;;;;;;24.90;66.58;100079.68;126498;1096;102885;-87
2021/07/16 05:22:22;;;;;;;0.40;0.00;;;;;;;24.94;66.19;100084.72;126433;1095;101915;-88
2021/07/16 05:24:49;;;;;;;0.40;0.00;;;;;;;24.96;66.44;100082.70;126576;1092;103316;-87
2021/07/16 05:27:16;;;;;;;0.40;0.00;;;;;;;24.98;66.04;100083.44;126456;1093;102956;-88
2021/07/16 05:29:45;;;;;;;0.40;0.00;;;;;;;24.98;65.74;100090.76;126502;1093;103004;-87
2021/07/16 05:32:12;;;;;;;0.40;0.00;;;;;;;25.03;65.53;100096.62;126511;1093;102868;-87
2021/07/16 05:34:42;;;;;;;0.40;0.00;;;;;;;25.09;65.27;100115.14;126446;1093;102870;-86
2021/07/16 05:37:12;;;;;;;0.40;0.00;;;;;;;25.12;65.58;100158.44;126562;1093;103026;-86
2021/07/16 05:39:39;;;;;;;0.40;0.00;;;;;;;25.14;64.88;100189.16;126536;1095;102869;-86
2021/07/16 05:42:06;;;;;;;0.40;0.00;;;;;;;25.12;64.94;100206.65;126578;1093;103144;-88
2021/07/16 05:44:34;;;;;;;0.40;0.00;;;;;;;25.05;64.87;100219.97;126517;1092;101722;-87
2021/07/16 05:47:01;;;;;;;0.40;0.00;;;;;;;24.92;65.26;100220.20;126517;1093;103040;-86
2021/07/16 05:49:28;;;;;;;0.40;0.00;;;;;;;24.95;65.46;100235.41;126537;1091;102975;-86
2021/07/16 05:51:56;;;;;;;0.40;0.00;;;;;;;24.96;65.66;100242.59;126547;1093;102962;-87
2021/07/16 05:54:24;;;;;;;0.40;0.00;;;;;;;24.99;65.71;100250.48;126454;1092;102949;-86
2021/07/16 05:56:52;;;;;;;0.40;0.00;;;;;;;24.96;65.53;100251.62;126597;1093;103117;-85
2021/07/16 05:59:20;;;;;;;0.40;0.00;;;;;;;25.00;65.81;100257.66;126642;1092;103017;-86
2021/07/16 06:01:47;;;;;;;0.40;0.00;;;;;;;25.00;65.65;100236.72;126516;1093;102876;-86
2021/07/16 06:04:15;;;;;;;0.40;0.00;;;;;;;25.01;64.97;100218.52;126508;1094;103000;-86
2021/07/16 06:06:42;;;;;;;0.40;0.00;;;;;;;25.06;64.81;100218.97;126555;1092;101823;-87
2021/07/16 06:09:09;;;;;;;0.40;0.00;;;;;;;25.13;64.18;100225.58;126565;1093;102876;-87
2021/07/16 06:11:38;;;;;;;0.40;0.00;;;;;;;25.13;64.24;100243.81;126568;1091;103015;-87
2021/07/16 06:14:05;;;;;;;0.40;0.00;;;;;;;25.09;64.57;100264.16;126538;1093;102853;-87
2021/07/16 06:16:34;;;;;;;0.40;0.00;;;;;;;25.02;64.54;100263.85;126555;1093;102879;-85
2021/07/16 06:19:02;;;;;;;0.40;0.00;;;;;;;24.84;64.75;100264.47;126594;1092;103032;-87
2021/07/16 06:21:29;;;;;;;0.40;0.00;;;;;;;24.87;65.00;100266.06;126524;1092;102815;-87
2021/07/16 06:23:57;;;;;;;0.40;0.00;;;;;;;24.90;65.15;100268.53;126559;1092;103526;-86
2021/07/16 06:26:24;;;;;;;0.40;0.00;;;;;;;24.92;65.11;100274.69;126479;1093;103074;-88
2021/07/16 06:28:51;;;;;;;0.40;0.00;;;;;;;25.03;64.97;100274.61;126472;1093;103020;-86
2021/07/16 06:31:19;;;;;;;0.40;0.00;;;;;;;25.06;65.01;100273.47;127106;1095;103015;-88
2021/07/16 06:33:46;;;;;;;0.40;0.00;;;;;;;25.05;65.55;100269.02;127014;1093;100957;-78
2021/07/16 06:36:13;;;;;;;0.40;0.00;;;;;;;25.00;65.73;100261.23;126562;1092;102997;-86
2021/07/16 06:38:42;;;;;;;0.40;0.00;;;;;;;25.02;66.38;100253.80;126347;1093;102873;-87
2021/07/16 06:41:10;;;;;;;0.40;0.00;;;;;;;25.00;66.79;100255.78;126475;1092;102890;-90
2021/07/16 06:43:37;;;;;;;0.40;0.00;;;;;;;24.92;66.55;100247.45;126494;1092;103332;-90
2021/07/16 06:46:05;;;;;;;0.40;0.00;;;;;;;24.83;66.86;100246.42;126691;1093;102975;-90
2021/07/16 06:48:37;;;;;;;0.40;0.00;;;;;;;24.73;66.89;100248.23;126640;1091;101610;-89
2021/07/16 06:51:05;;;;;;;0.40;0.00;;;;;;;24.71;67.33;100247.48;126420;1092;103019;-91
2021/07/16 06:53:32;;;;;;;0.40;0.00;;;;;;;24.72;67.34;100257.39;126377;1094;103021;-91
2021/07/16 06:55:59;;;;;;;0.40;0.00;;;;;;;24.66;67.12;100261.53;126445;1092;102867;-90
2021/07/16 06:58:26;;;;;;;0.40;0.00;;;;;;;24.60;68.08;100261.17;126601;1093;102930;-90
2021/07/16 07:00:55;;;;;;;0.40;0.00;;;;;;;24.62;68.48;100259.16;126484;1093;102886;-90
2021/07/16 07:03:27;;;;;;;0.40;0.00;;;;;;;24.64;68.06;100243.59;126489;1095;103021;-91
2021/07/16 07:05:58;;;;;;;0.40;0.00;;;;;;;24.63;67.85;100239.14;126624;1093;102865;-90
2021/07/16 07:08:26;;;;;;;0.40;0.00;;;;;;;24.50;68.47;100234.75;126406;1093;102847;-90
2021/07/16 07:10:53;;;;;;;0.40;0.00;;;;;;;24.37;68.95;100237.67;126513;1093;102948;-91
2021/07/16 07:13:25;;;;;;;0.50;0.10;;;;;;;24.25;69.04;100233.31;126537;1092;103026;-90
2021/07/16 07:15:52;;;;;;;0.40;0.00;;;;;;;24.15;69.91;100227.81;126621;1093;101031;-89
2021/07/16 07:18:24;;;;;;;0.40;0.00;;;;;;;24.06;69.89;100212.28;126558;1093;101034;-91
2021/07/16 07:20:52;;;;;;;0.70;0.10;;;;;;;23.93;70.23;100198.02;126485;1094;103012;-91
2021/07/16 07:23:20;;;;;;;0.40;0.00;;;;;;;23.79;70.72;100188.27;126513;1093;101938;-89
2021/07/16 07:25:51;;;;;;;0.40;0.00;;;;;;;23.70;70.97;100185.34;126565;1093;102975;-90
2021/07/16 07:28:18;;;;;;;0.50;0.00;;;;;;;23.63;71.27;100205.91;126641;1092;102868;-91
2021/07/16 07:30:46;;;;;;;0.40;0.00;;;;;;;23.65;71.83;100243.83;126522;1092;103505;-92
2021/07/16 07:33:14;;;;;;;0.40;0.00;;;;;;;23.51;71.80;100259.45;126433;1092;102985;-89
2021/07/16 07:35:44;;;;;;;0.40;0.00;;;;;;;23.55;71.90;100268.19;126446;1093;102906;-89
2021/07/16 07:38:12;;;;;;;0.40;0.00;;;;;;;23.65;71.45;100266.44;126466;1095;103037;-92
2021/07/16 07:40:39;;;;;;;0.40;0.00;;;;;;;23.68;71.54;100270.75;126407;1095;103026;-91
2021/07/16 07:43:10;;;;;;;0.40;0.00;;;;;;;23.61;71.91;100274.99;126438;1093;102871;-91
2021/07/16 07:45:45;;;;;;;0.40;0.00;;;;;;;23.64;72.23;100274.72;126484;1092;103010;-89
2021/07/16 07:48:12;;;;;;;0.40;0.00;;;;;;;23.67;71.86;100275.34;126558;1092;102995;-90
2021/07/16 07:50:44;;;;;;;0.40;0.00;;;;;;;23.78;71.83;100284.43;126588;1092;102892;-90
2021/07/16 07:53:15;;;;;;;0.40;0.00;;;;;;;23.82;71.92;100275.05;126566;1093;102055;-91
2021/07/16 07:56:12;;;;;;;0.40;0.00;;;;;;;23.86;71.41;100252.89;126609;1093;103094;-91
2021/07/16 07:58:42;;;;;;;0.40;0.00;;;;;;;23.86;71.25;100252.89;126671;1092;102947;-89
2021/07/16 08:01:11;;;;;;;0.40;0.00;;;;;;;23.83;71.62;100234.13;126540;1092;102985;-89
2021/07/16 08:03:47;;;;;;;0.40;0.00;;;;;;;23.77;71.66;100236.50;126576;1093;103108;-90
2021/07/16 08:06:18;;;;;;;0.40;0.00;;;;;;;23.65;72.21;100232.95;126506;1093;103034;-90
2021/07/16 08:08:46;;;;;;;0.40;0.00;;;;;;;23.62;71.96;100235.91;126763;1093;102985;-90
2021/07/16 08:11:16;;;;;;;0.40;0.00;;;;;;;23.67;71.66;100226.40;126584;1092;102965;-91
2021/07/16 08:13:44;;;;;;;0.40;0.00;;;;;;;23.76;71.54;100230.17;126390;1093;103019;-92
2021/07/16 08:16:11;;;;;;;0.40;0.00;;;;;;;23.81;71.70;100246.13;126439;1096;103031;-92
2021/07/16 08:18:42;;;;;;;0.40;0.00;;;;;;;23.87;71.48;100246.47;126572;1095;103023;-90
2021/07/16 08:21:09;;;;;;;0.40;0.00;;;;;;;23.93;71.38;100242.38;126427;1092;102861;-91
2021/07/16 08:23:37;;;;;;;0.40;0.00;;;;;;;23.96;71.13;100246.70;126368;1095;102869;-92
2021/07/16 08:26:13;;;;;;;0.40;0.00;;;;;;;23.98;70.70;100237.42;126557;1095;101800;-93
2021/07/16 08:29:05;;;;;;;0.40;0.00;;;;;;;24.04;70.83;100233.30;126714;1093;102882;-91
2021/07/16 08:31:47;;;;;;;0.40;0.00;;;;;;;24.00;70.61;100210.08;126791;1093;101542;-92
2021/07/16 08:34:17;;;;;;;0.40;0.00;;;;;;;23.89;70.97;100200.13;126764;1093;102998;-91
2021/07/16 08:37:01;;;;;;;0.40;0.00;;;;;;;23.76;71.41;100183.95;126495;1093;101160;-92
2021/07/16 08:39:28;;;;;;;0.40;0.00;;;;;;;23.60;72.29;100135.45;126440;1093;102869;-93
2021/07/16 08:42:03;;;;;;;0.40;0.00;;;;;;;23.48;72.51;100107.46;126544;1092;102996;-92
2021/07/16 08:44:36;;;;;;;0.40;0.00;;;;;;;23.39;72.80;100127.27;126729;1092;102893;-93
2021/07/16 08:47:04;;;;;;;0.40;0.00;;;;;;;23.35;72.71;100158.41;126810;1093;101570;-92
2021/07/16 08:49:36;;;;;;;0.40;0.00;;;;;;;23.42;72.51;100175.95;126604;1092;104432;-92
2021/07/16 08:52:08;;;;;;;0.40;0.00;;;;;;;23.53;72.33;100167.73;126677;1092;100771;-90
2021/07/16 08:54:45;;;;;;;0.40;0.00;;;;;;;23.56;72.21;100166.61;126481;1094;102897;-92
2021/07/16 08:57:14;;;;;;;0.40;0.00;;;;;;;23.56;72.29;100195.67;126610;1093;102853;-92
2021/07/16 08:59:42;;;;;;;0.40;0.00;;;;;;;23.59;72.17;100222.59;126518;1093;102869;-92
2021/07/16 09:02:10;;;;;;;0.40;0.00;;;;;;;23.46;72.64;100260.80;126417;1093;102955;-91
2021/07/16 09:04:40;;;;;;;0.40;0.00;;;;;;;23.36;73.49;100279.72;126320;1092;102989;-89
2021/07/16 09:07:18;;;;;;;0.40;0.00;;;;;;;23.36;73.29;100282.44;126431;1093;102910;-91
2021/07/16 09:09:45;;;;;;;0.40;0.00;;;;;;;23.60;73.57;100279.55;126556;1093;103006;-91
2021/07/16 09:12:14;;;;;;;0.40;0.00;;;;;;;23.82;72.75;100278.63;126386;1092;102863;-91
2021/07/16 09:14:52;;;;;;;0.40;0.00;;;;;;;24.07;71.93;100281.15;126570;1096;102999;-89
2021/07/16 09:17:27;;;;;;;0.40;0.00;;;;;;;24.30;71.40;100274.60;126523;1092;103099;-92
2021/07/16 09:19:55;;;;;;;0.40;0.00;;;;;;;24.57;71.14;100283.23;126596;1092;102831;-92
2021/07/16 09:22:25;;;;;;;0.40;0.00;;;;;;;24.73;70.57;100289.08;126857;1093;102866;-92
2021/07/16 09:24:55;;;;;;;0.40;0.00;;;;;;;24.83;69.67;100291.84;126831;1092;103017;-92
2021/07/16 09:27:57;;;;;;;0.40;0.00;;;;;;;25.01;69.71;100290.22;126894;1093;102625;-92
2021/07/16 09:30:28;;;;;;;0.40;0.00;;;;;;;25.26;69.37;100288.03;127420;1096;102879;-92
2021/07/16 09:33:05;;;;;;;0.40;0.00;;;;;;;25.37;68.59;100276.18;126379;1093;102985;-92
2021/07/16 09:35:38;;;;;;;0.40;0.00;;;;;;;25.61;68.59;100281.25;126382;1092;102130;-92
2021/07/16 09:38:11;;;;;;;0.40;0.00;;;;;;;25.78;67.88;100292.46;126354;1092;102890;-92
2021/07/16 09:40:53;;;;;;;0.40;0.00;;;;;;;25.94;66.58;100284.59;126462;1093;103342;-90
2021/07/16 09:43:29;;;;;;;0.40;0.00;;;;;;;26.06;66.42;100282.62;126627;1093;102988;-91
2021/07/16 09:46:01;;;;;;;0.40;0.00;;;;;;;26.13;66.94;100283.75;126635;1093;102869;-90
2021/07/16 09:48:40;;;;;;;0.40;0.00;;;;;;;26.14;66.99;100290.09;126383;1093;103020;-90
2021/07/16 09:51:08;;;;;;;0.40;0.00;;;;;;;26.18;66.01;100289.64;126528;1093;103007;-89
2021/07/16 09:53:49;;;;;;;0.40;0.00;;;;;;;26.18;65.34;100284.19;126638;1093;102918;-90
2021/07/16 09:56:34;;;;;;;0.40;0.00;;;;;;;26.14;64.96;100281.91;126854;1093;102891;-90
2021/07/16 09:59:13;;;;;;;0.40;0.00;;;;;;;26.07;64.71;100284.35;126800;1093;101818;-88
2021/07/16 10:02:09;;;;;;;0.40;0.00;;;;;;;26.09;65.79;100276.86;126716;1092;102849;-90
2021/07/16 10:04:53;;;;;;;0.40;0.00;;;;;;;26.21;65.46;100277.58;126560;1092;102978;-90
2021/07/16 10:07:27;;;;;;;0.40;0.00;;;;;;;26.16;65.06;100279.88;126450;1093;103033;-89
2021/07/16 10:09:54;;;;;;;0.40;0.00;;;;;;;26.08;64.54;100275.13;126898;1096;102963;-90
2021/07/16 10:12:30;;;;;;;0.40;0.00;;;;;;;26.06;64.59;100277.16;126638;1093;103563;-90
2021/07/16 10:15:11;;;;;;;0.40;0.00;;;;;;;26.02;64.08;100271.09;126676;1093;103084;-89
2021/07/16 10:17:40;;;;;;;0.40;0.00;;;;;;;25.99;64.34;100278.69;126565;1093;103715;-92
2021/07/16 10:20:15;;;;;;;0.40;0.00;;;;;;;25.98;64.83;100291.48;126709;1093;102754;-90
2021/07/16 10:22:57;;;;;;;0.40;0.00;;;;;;;25.98;64.28;100294.22;126503;1095;101733;-91
2021/07/16 10:25:24;;;;;;;0.40;0.00;;;;;;;25.99;64.15;100287.76;126314;1095;103062;-90
2021/07/16 10:28:07;;;;;;;0.40;0.00;;;;;;;26.00;64.14;100281.27;126953;1093;102722;-89
2021/07/16 10:30:52;;;;;;;0.40;0.00;;;;;;;26.02;64.26;100281.16;126686;1093;102959;-89
2021/07/16 10:33:36;;;;;;;0.40;0.00;;;;;;;26.01;63.85;100276.69;126518;1096;102939;-91
2021/07/16 10:43:29;;;;;;;0.40;0.00;;;;;;;26.14;63.98;100281.91;126442;1093;102869;-90
2021/07/16 10:53:32;;;;;;;0.40;0.00;;;;;;;27.28;62.25;100289.22;126184;1092;115626;-89
2021/07/16 10:56:02;;;;;;;0.40;0.00;;;;;;;28.00;60.98;100284.75;126525;1095;103049;-91
2021/07/16 10:58:30;;;;;;;0.40;0.00;;;;;;;28.49;59.13;100276.09;126267;1093;116643;-90
2021/07/16 11:01:07;;;;;;;0.40;0.00;;;;;;;28.94;60.17;100285.15;126698;1095;103020;-90
2021/07/16 11:03:58;;;;;;;0.40;0.00;;;;;;;29.00;57.24;100278.14;126318;1094;114990;-90
2021/07/16 11:06:48;;;;;;;0.40;0.00;;;;;;;28.91;57.06;100270.90;126584;1093;102857;-90
2021/07/16 11:09:56;;;;;;;0.40;0.00;;;;;;;28.76;56.60;100268.76;126589;1096;102946;-90
2021/07/16 11:16:15;;;;;;;0.40;0.00;;;;;;;28.54;57.25;100267.41;126579;1096;101750;-90
2021/07/16 11:18:58;;;;;;;0.40;0.00;;;;;;;28.60;57.27;100274.12;126030;1096;114400;-91
2021/07/16 11:28:41;;;;;;;0.40;0.00;;;;;;;28.92;55.18;100283.59;126089;1096;114766;-91
2021/07/16 11:31:09;;;;;;;0.40;0.00;;;;;;;28.84;56.36;100284.40;126143;1095;103199;-88
2021/07/16 11:33:38;;;;;;;0.40;0.00;;;;;;;28.82;58.09;100286.46;126225;1095;102993;-90
2021/07/16 11:36:18;;;;;;;0.40;0.00;;;;;;;28.87;56.71;100292.32;126105;1096;114337;-90
2021/07/16 11:39:23;;;;;;;0.40;0.00;;;;;;;28.84;56.53;100292.63;126313;1095;102962;-90
2021/07/16 11:41:52;;;;;;;0.40;0.00;;;;;;;28.84;56.08;100292.63;126606;1093;113010;-89
2021/07/16 11:44:32;;;;;;;0.40;0.00;;;;;;;28.98;56.78;100302.14;126560;1096;102945;-89
2021/07/16 11:47:17;;;;;;;0.40;0.00;;;;;;;28.93;56.16;100301.77;126409;1095;114598;-89
2021/07/16 11:49:52;;;;;;;0.40;0.00;;;;;;;28.98;57.13;100296.66;126431;1094;102866;-90
2021/07/16 11:59:49;;;;;;;0.40;0.00;;;;;;;28.83;55.74;100300.00;126593;1094;102871;-90